createdAt,value
2022-09-22T00:02:02.669Z,100372.75
2022-09-22T00:04:33.533Z,100361.81
2022-09-22T00:07:04.450Z,100368.75
2022-09-22T00:09:35.102Z,100363.47
2022-09-22T00:12:08.579Z,100357.78
2022-09-22T00:14:39.268Z,100360.25
2022-09-22T00:17:09.993Z,100370.00
2022-09-22T00:19:40.643Z,100368.41
2022-09-22T00:22:11.058Z,100361.09
2022-09-22T00:24:43.630Z,100357.84
2022-09-22T00:27:16.439Z,100359.91
2022-09-22T00:29:47.507Z,100351.81
2022-09-22T00:32:19.081Z,100358.72
2022-09-22T00:34:50.668Z,100351.41
2022-09-22T00:37:21.722Z,100359.13
2022-09-22T00:39:54.376Z,100361.19
2022-09-22T00:42:28.477Z,100351.81
2022-09-22T00:45:03.650Z,100355.53
2022-09-22T00:47:40.304Z,100349.84
2022-09-22T00:50:17.333Z,100339.69
2022-09-22T00:53:03.403Z,100338.09
2022-09-22T00:55:43.514Z,100335.69
2022-09-22T00:58:19.599Z,100350.31
2022-09-22T01:00:51.274Z,100348.69
2022-09-22T01:03:29.574Z,100348.69
2022-09-22T01:06:07.986Z,100351.97
2022-09-22T01:08:44.199Z,100349.13
2022-09-22T01:11:19.578Z,100354.00
2022-09-22T01:14:16.602Z,100354.84
2022-09-22T01:17:01.873Z,100358.88
2022-09-22T01:20:19.106Z,100355.25
2022-09-22T01:23:32.408Z,100355.69
2022-09-22T01:26:37.809Z,100364.66
2022-09-22T01:29:52.624Z,100349.66
2022-09-22T01:32:36.094Z,100355.41
2022-09-22T01:35:19.247Z,100357.47
2022-09-22T01:38:04.466Z,100363.63
2022-09-22T01:40:44.762Z,100365.69
2022-09-22T01:43:34.255Z,100360.84
2022-09-22T01:46:12.131Z,100357.22
2022-09-22T01:48:50.939Z,100362.94
2022-09-22T01:51:29.339Z,100367.44
2022-09-22T01:54:08.573Z,100354.06
2022-09-22T01:56:41.717Z,100363.03
2022-09-22T01:59:17.200Z,100372.41
2022-09-22T02:01:55.419Z,100364.69
2022-09-22T02:04:33.619Z,100361.88
2022-09-22T02:07:10.470Z,100369.22
2022-09-22T02:09:45.020Z,100369.22
2022-09-22T02:12:19.058Z,100371.31
2022-09-22T02:14:50.553Z,100389.16
2022-09-22T02:17:21.443Z,100392.84
2022-09-22T02:19:54.335Z,100392.03
2022-09-22T02:22:25.189Z,100394.50
2022-09-22T02:24:56.153Z,100403.44
2022-09-22T02:27:37.168Z,100403.44
2022-09-22T02:30:12.584Z,100404.25
2022-09-22T02:32:52.166Z,100402.25
2022-09-22T02:35:29.781Z,100407.56
2022-09-22T02:38:11.209Z,100399.44
2022-09-22T02:40:52.183Z,100403.13
2022-09-22T02:43:40.174Z,100416.09
2022-09-22T02:46:22.083Z,100410.88
2022-09-22T02:48:58.555Z,100410.47
2022-09-22T02:51:33.553Z,100418.59
2022-09-22T02:54:04.875Z,100414.97
2022-09-22T02:56:36.270Z,100417.41
2022-09-22T02:59:07.423Z,100417.78
2022-09-22T03:01:38.552Z,100418.63
2022-09-22T03:04:10.032Z,100425.50
2022-09-22T03:06:42.397Z,100424.31
2022-09-22T03:09:13.199Z,100422.66
2022-09-22T03:11:44.604Z,100426.31
2022-09-22T03:14:15.782Z,100424.69
2022-09-22T03:16:46.678Z,100427.94
2022-09-22T03:19:17.593Z,100429.97
2022-09-22T03:21:50.401Z,100421.44
2022-09-22T03:24:21.557Z,100424.72
2022-09-22T03:26:52.040Z,100414.97
2022-09-22T03:29:23.086Z,100423.88
2022-09-22T03:31:53.821Z,100423.88
2022-09-22T03:34:23.895Z,100425.94
2022-09-22T03:36:56.775Z,100426.72
2022-09-22T03:39:27.561Z,100440.94
2022-09-22T03:41:58.183Z,100435.28
2022-09-22T03:44:29.657Z,100433.66
2022-09-22T03:47:00.749Z,100445.81
2022-09-22T03:49:31.967Z,100440.97
2022-09-22T03:52:05.336Z,100445.81
2022-09-22T03:54:37.614Z,100445.44
2022-09-22T03:57:08.167Z,100445.84
2022-09-22T03:59:39.487Z,100445.06
2022-09-22T04:02:09.767Z,100445.47
2022-09-22T04:04:40.106Z,100448.31
2022-09-22T04:07:12.940Z,100445.09
2022-09-22T04:09:44.119Z,100445.91
2022-09-22T04:12:14.886Z,100453.63
2022-09-22T04:14:45.047Z,100452.81
2022-09-22T04:17:15.200Z,100458.91
2022-09-22T04:19:46.687Z,100453.22
2022-09-22T04:22:19.026Z,100455.22
2022-09-22T04:24:49.166Z,100457.69
2022-09-22T04:27:20.559Z,100454.84
2022-09-22T04:29:52.230Z,100457.69
2022-09-22T04:32:23.081Z,100459.66
2022-09-22T04:34:54.446Z,100468.59
2022-09-22T04:37:27.085Z,100463.28
2022-09-22T04:39:59.784Z,100465.31
2022-09-22T04:42:30.642Z,100470.97
2022-09-22T04:45:02.579Z,100474.59
2022-09-22T04:47:33.365Z,100481.50
2022-09-22T04:50:04.208Z,100474.56
2022-09-22T04:52:38.058Z,100480.22
2022-09-22T04:55:10.792Z,100488.31
2022-09-22T04:57:42.024Z,100494.75
2022-09-22T05:00:15.032Z,100504.03
2022-09-22T05:02:45.944Z,100507.66
2022-09-22T05:05:17.251Z,100506.00
2022-09-22T05:07:54.620Z,100501.91
2022-09-22T05:10:27.896Z,100507.56
2022-09-22T05:12:58.962Z,100502.28
2022-09-22T05:15:33.732Z,100507.94
2022-09-22T05:18:07.640Z,100503.81
2022-09-22T05:20:39.365Z,100514.31
2022-09-22T05:23:12.248Z,100511.41
2022-09-22T05:25:44.746Z,100517.44
2022-09-22T05:28:15.651Z,100518.97
2022-09-22T05:30:46.781Z,100508.81
2022-09-22T05:33:17.222Z,100513.63
2022-09-22T05:35:48.523Z,100514.38
2022-09-22T05:38:21.484Z,100517.97
2022-09-22T05:40:52.542Z,100519.94
2022-09-22T05:43:23.706Z,100521.91
2022-09-22T05:45:54.485Z,100534.81
2022-09-22T05:48:30.851Z,100536.38
2022-09-22T05:51:02.172Z,100537.53
2022-09-22T05:53:35.056Z,100545.53
2022-09-22T05:56:06.665Z,100547.06
2022-09-22T05:58:37.282Z,100558.75
2022-09-22T06:01:08.289Z,100561.13
2022-09-22T06:03:39.411Z,100551.72
2022-09-22T06:06:10.513Z,100558.50
2022-09-22T06:08:47.764Z,100562.06
2022-09-22T06:11:19.756Z,100568.06
2022-09-22T06:13:53.670Z,100573.25
2022-09-22T06:16:24.667Z,100577.16
2022-09-22T06:18:55.471Z,100576.69
2022-09-22T06:21:26.537Z,100575.78
2022-09-22T06:23:58.955Z,100579.34
2022-09-22T06:26:30.126Z,100583.25
2022-09-22T06:29:00.936Z,100590.47
2022-09-22T06:31:31.456Z,100586.69
2022-09-22T06:34:06.842Z,100588.63
2022-09-22T06:36:38.749Z,100589.38
2022-09-22T06:39:12.107Z,100589.25
2022-09-22T06:41:43.277Z,100594.47
2022-09-22T06:44:16.022Z,100589.50
2022-09-22T06:46:46.901Z,100606.56
2022-09-22T06:49:17.773Z,100598.00
2022-09-22T06:51:50.358Z,100600.44
2022-09-22T06:54:25.350Z,100608.94
2022-09-22T06:56:56.147Z,100610.06
2022-09-22T06:59:27.207Z,100604.28
2022-09-22T07:01:57.721Z,100599.69
2022-09-22T07:04:28.204Z,100601.66
2022-09-22T07:06:59.223Z,100600.28
2022-09-22T07:09:31.669Z,100597.66
2022-09-22T07:12:01.984Z,100610.19
2022-09-22T07:14:33.255Z,100615.84
2022-09-22T07:17:03.511Z,100618.69
2022-09-22T07:19:36.782Z,100618.69
2022-09-22T07:22:08.808Z,100626.47
2022-09-22T07:24:42.731Z,100619.16
2022-09-22T07:27:15.178Z,100616.28
2022-09-22T07:29:48.230Z,100614.59
2022-09-22T07:32:18.973Z,100618.59
2022-09-22T07:34:49.642Z,100606.63
2022-09-22T07:37:20.438Z,100614.69
2022-09-22T07:39:53.339Z,100622.66
2022-09-22T07:42:24.072Z,100623.31
2022-09-22T07:45:11.596Z,100612.09
2022-09-22T07:47:59.164Z,100624.22
2022-09-22T07:50:29.529Z,100619.25
2022-09-22T07:53:00.546Z,100616.66
2022-09-22T07:55:32.779Z,100610.81
2022-09-22T07:58:03.907Z,100608.25
2022-09-22T08:00:37.032Z,100608.16
2022-09-22T08:03:09.109Z,100602.38
2022-09-22T08:05:41.299Z,100601.50
2022-09-22T08:08:12.622Z,100592.00
2022-09-22T08:10:44.919Z,100595.22
2022-09-22T08:13:16.626Z,100588.25
2022-09-22T08:15:46.716Z,100597.22
2022-09-22T08:18:17.613Z,100593.47
2022-09-22T08:20:48.459Z,100597.13
2022-09-22T08:23:18.815Z,100590.25
2022-09-22T08:25:51.291Z,100587.47
2022-09-22T08:28:22.116Z,100582.63
2022-09-22T08:30:53.077Z,100576.44
2022-09-22T08:33:24.212Z,100572.72
2022-09-22T08:35:57.449Z,100569.75
2022-09-22T08:38:29.623Z,100571.38
2022-09-22T08:41:18.837Z,100578.19
2022-09-22T08:43:56.525Z,100571.94
2022-09-22T08:46:33.332Z,100567.31
2022-09-22T08:49:27.873Z,100568.03
2022-09-22T08:52:05.416Z,100558.56
2022-09-22T08:54:36.963Z,100562.59
2022-09-22T08:57:57.746Z,100572.34
2022-09-22T09:00:40.448Z,100565.72
2022-09-22T09:03:33.636Z,100566.44
2022-09-22T09:06:16.248Z,100564.28
2022-09-22T09:09:20.755Z,100560.09
2022-09-22T09:12:20.612Z,100551.88
2022-09-22T09:15:35.343Z,100552.31
2022-09-22T09:18:16.649Z,100549.00
2022-09-22T09:20:52.719Z,100555.09
2022-09-22T09:26:24.318Z,100554.91
2022-09-22T09:29:04.115Z,100546.56
2022-09-22T09:31:42.442Z,100549.00
2022-09-22T09:34:18.884Z,100548.22
2022-09-22T09:36:55.739Z,100544.53
2022-09-22T09:39:35.211Z,100541.31
2022-09-22T09:42:20.356Z,100546.22
2022-09-22T09:44:58.937Z,100551.16
2022-09-22T09:48:08.011Z,100542.56
2022-09-22T09:50:40.150Z,100544.59
2022-09-22T09:53:34.222Z,100545.34
2022-09-22T09:56:05.250Z,100522.78
2022-09-22T09:58:52.523Z,100525.56
2022-09-22T10:01:25.361Z,100516.50
2022-09-22T10:03:56.169Z,100511.16
2022-09-22T10:06:28.973Z,100514.38
2022-09-22T10:09:00.197Z,100510.69
2022-09-22T10:11:35.377Z,100513.91
2022-09-22T10:14:06.383Z,100510.56
2022-09-22T10:16:40.180Z,100512.56
2022-09-22T10:19:27.995Z,100502.69
2022-09-22T10:22:26.824Z,100503.16
2022-09-22T10:25:01.600Z,100495.00
2022-09-22T10:27:34.183Z,100503.16
2022-09-22T10:30:26.331Z,100495.34
2022-09-22T10:33:23.186Z,100478.63
2022-09-22T10:36:09.460Z,100494.22
2022-09-22T10:38:45.562Z,100494.69
2022-09-22T10:41:26.832Z,100484.47
2022-09-22T10:44:15.522Z,100475.50
2022-09-22T10:47:26.738Z,100475.63
2022-09-22T10:50:39.863Z,100483.03
2022-09-22T10:53:40.393Z,100460.56
2022-09-22T10:56:22.690Z,100467.13
2022-09-22T10:59:35.097Z,100482.69
2022-09-22T11:02:51.898Z,100465.94
2022-09-22T11:06:05.996Z,100483.94
2022-09-22T11:09:08.452Z,100475.38
2022-09-22T11:12:10.563Z,100471.69
2022-09-22T11:15:03.028Z,100477.84
2022-09-22T11:18:09.150Z,100490.94
2022-09-22T11:20:46.768Z,100488.47
2022-09-22T11:23:48.939Z,100484.91
2022-09-22T11:26:51.954Z,100484.75
2022-09-22T11:30:11.156Z,100480.38
2022-09-22T11:33:14.702Z,100474.28
2022-09-22T11:36:06.575Z,100467.78
2022-09-22T11:39:26.249Z,100475.53
2022-09-22T11:42:15.926Z,100478.41
2022-09-22T11:45:08.347Z,100479.22
2022-09-22T11:48:04.767Z,100496.84
2022-09-22T11:51:09.124Z,100499.34
2022-09-22T11:54:10.831Z,100492.81
2022-09-22T11:56:47.527Z,100482.72
2022-09-22T11:59:33.599Z,100480.38
2022-09-22T12:02:13.741Z,100475.09
2022-09-22T12:04:53.024Z,100472.72
2022-09-22T12:07:32.907Z,100464.22
2022-09-22T12:10:09.562Z,100468.31
2022-09-22T12:12:43.305Z,100471.63
2022-09-22T12:15:34.099Z,100459.81
2022-09-22T12:18:14.976Z,100460.25
2022-09-22T12:20:59.927Z,100461.50
2022-09-22T12:23:54.252Z,100463.19
2022-09-22T12:26:35.137Z,100461.22
2022-09-22T12:29:24.344Z,100466.59
2022-09-22T12:31:58.754Z,100466.66
2022-09-22T12:34:34.483Z,100458.91
2022-09-22T12:37:16.044Z,100462.66
2022-09-22T12:39:51.998Z,100461.97
2022-09-22T12:42:33.494Z,100471.06
2022-09-22T12:45:20.100Z,100472.31
2022-09-22T12:47:56.210Z,100472.41
2022-09-22T12:50:43.003Z,100471.66
2022-09-22T12:53:28.516Z,100455.84
2022-09-22T12:56:01.516Z,100464.50
2022-09-22T12:58:47.187Z,100467.47
2022-09-22T13:01:37.352Z,100475.28
2022-09-22T13:04:21.174Z,100479.47
2022-09-22T13:07:00.342Z,100478.31
2022-09-22T13:09:45.369Z,100476.00
2022-09-22T13:12:31.457Z,100478.47
2022-09-22T13:15:19.630Z,100488.75
2022-09-22T13:17:51.536Z,100487.94
2022-09-22T13:20:27.287Z,100498.22
2022-09-22T13:23:06.625Z,100491.34
2022-09-22T13:25:37.845Z,100491.41
2022-09-22T13:28:20.615Z,100503.28
2022-09-22T13:31:06.067Z,100492.28
2022-09-22T13:33:39.569Z,100486.66
2022-09-22T13:36:15.453Z,100486.28
2022-09-22T13:38:51.376Z,100487.59
2022-09-22T13:41:27.093Z,100484.84
2022-09-22T13:44:08.228Z,100489.34
2022-09-22T13:46:44.045Z,100485.75
2022-09-22T13:49:24.093Z,100481.75
2022-09-22T13:52:01.572Z,100500.13
2022-09-22T13:54:37.206Z,100496.88
2022-09-22T13:57:20.618Z,100492.41
2022-09-22T13:59:55.954Z,100496.59
2022-09-22T14:02:31.617Z,100494.97
2022-09-22T14:05:09.867Z,100492.56
2022-09-22T14:07:55.536Z,100493.00
2022-09-22T14:10:33.409Z,100481.66
2022-09-22T14:13:14.791Z,100484.59
2022-09-22T14:15:49.083Z,100482.97
2022-09-22T14:18:27.722Z,100487.97
2022-09-22T14:21:01.266Z,100490.06
2022-09-22T14:23:34.448Z,100488.09
2022-09-22T14:26:20.572Z,100493.44
2022-09-22T14:28:51.528Z,100494.31
2022-09-22T14:31:28.196Z,100497.19
2022-09-22T14:33:59.648Z,100492.69
2022-09-22T14:36:31.394Z,100496.00
2022-09-22T14:39:10.573Z,100491.94
2022-09-22T14:41:41.368Z,100495.22
2022-09-22T14:44:49.016Z,100495.69
2022-09-22T14:47:40.583Z,100490.03
2022-09-22T14:50:20.946Z,100493.75
2022-09-22T14:53:01.692Z,100494.19
2022-09-22T14:55:37.694Z,100497.47
2022-09-22T14:58:18.351Z,100494.25
2022-09-22T15:01:15.079Z,100493.91
2022-09-22T15:03:57.363Z,100493.94
2022-09-22T15:06:36.473Z,100493.59
2022-09-22T15:09:09.213Z,100489.13
2022-09-22T15:11:54.287Z,100496.50
2022-09-22T15:14:43.610Z,100483.09
2022-09-22T15:18:03.245Z,100489.69
2022-09-22T15:20:52.784Z,100486.06
2022-09-22T15:23:29.456Z,100490.59
2022-09-22T15:26:04.140Z,100492.28
2022-09-22T15:28:38.590Z,100493.16
2022-09-22T15:31:11.254Z,100485.47
2022-09-22T15:33:42.128Z,100494.44
2022-09-22T15:36:18.898Z,100492.03
2022-09-22T15:38:49.516Z,100490.41
2022-09-22T15:41:20.461Z,100504.66
2022-09-22T15:43:51.749Z,100505.53
2022-09-22T15:46:34.649Z,100504.34
2022-09-22T15:49:09.314Z,100504.78
2022-09-22T15:51:42.972Z,100506.03
2022-09-22T15:54:18.323Z,100502.34
2022-09-22T15:56:53.344Z,100510.13
2022-09-22T15:59:28.539Z,100509.28
2022-09-22T16:02:00.297Z,100504.03
2022-09-22T16:04:34.027Z,100513.03
2022-09-22T16:07:13.488Z,100520.78
2022-09-22T16:09:44.286Z,100516.31
2022-09-22T16:12:20.539Z,100526.13
2022-09-22T16:14:55.468Z,100529.78
2022-09-22T16:17:26.748Z,100522.44
2022-09-22T16:19:58.188Z,100524.50
2022-09-22T16:22:30.910Z,100538.78
2022-09-22T16:25:01.932Z,100536.31
2022-09-22T16:27:32.807Z,100532.25
2022-09-22T16:30:03.600Z,100542.03
2022-09-22T16:32:37.102Z,100537.94
2022-09-22T16:35:09.559Z,100536.31
2022-09-22T16:37:42.675Z,100549.78
2022-09-22T16:40:14.282Z,100544.94
2022-09-22T16:42:45.804Z,100551.88
2022-09-22T16:45:16.798Z,100557.22
2022-09-22T16:47:47.857Z,100550.28
2022-09-22T16:50:19.778Z,100552.31
2022-09-22T16:52:52.291Z,100557.22
2022-09-22T16:55:23.092Z,100548.31
2022-09-22T16:57:53.528Z,100550.78
2022-09-22T17:00:24.622Z,100548.31
2022-09-22T17:02:55.515Z,100554.47
2022-09-22T17:05:26.400Z,100555.72
2022-09-22T17:08:03.533Z,100562.66
2022-09-22T17:10:37.235Z,100562.28
2022-09-22T17:13:11.336Z,100560.28
2022-09-22T17:15:42.032Z,100555.81
2022-09-22T17:18:12.955Z,100567.22
2022-09-22T17:20:43.612Z,100558.66
2022-09-22T17:23:17.531Z,100565.16
2022-09-22T17:25:49.891Z,100555.44
2022-09-22T17:28:20.632Z,100560.75
2022-09-22T17:31:08.470Z,100569.31
2022-09-22T17:33:47.902Z,100570.97
2022-09-22T17:36:24.972Z,100573.03
2022-09-22T17:39:01.629Z,100575.88
2022-09-22T17:41:35.964Z,100569.81
2022-09-22T17:44:07.954Z,100583.22
2022-09-22T17:46:59.537Z,100580.38
2022-09-22T17:49:47.249Z,100582.41
2022-09-22T17:52:35.591Z,100582.03
2022-09-22T17:55:17.406Z,100590.56
2022-09-22T17:57:50.959Z,100591.00
2022-09-22T18:00:24.215Z,100598.34
2022-09-22T18:02:58.910Z,100604.84
2022-09-22T18:05:32.750Z,100602.41
2022-09-22T18:08:04.348Z,100610.16
2022-09-22T18:10:37.831Z,100610.16
2022-09-22T18:13:10.161Z,100611.81
2022-09-22T18:15:41.481Z,100611.44
2022-09-22T18:18:12.091Z,100609.47
2022-09-22T18:20:43.355Z,100598.50
2022-09-22T18:23:14.480Z,100611.13
2022-09-22T18:25:47.577Z,100611.97
2022-09-22T18:28:24.036Z,100619.69
2022-09-22T18:30:54.940Z,100618.91
2022-09-22T18:33:25.690Z,100625.84
2022-09-22T18:35:57.159Z,100622.97
2022-09-22T18:38:28.930Z,100625.84
2022-09-22T18:41:02.206Z,100630.31
2022-09-22T18:43:33.101Z,100628.69
2022-09-22T18:46:08.340Z,100623.78
2022-09-22T18:48:42.157Z,100628.69
2022-09-22T18:51:12.951Z,100635.16
2022-09-22T18:53:44.043Z,100639.25
2022-09-22T18:56:20.587Z,100633.56
2022-09-22T18:58:51.443Z,100635.63
2022-09-22T19:01:23.165Z,100635.63
2022-09-22T19:03:54.875Z,100635.63
2022-09-22T19:06:26.386Z,100625.00
2022-09-22T19:08:56.960Z,100631.13
2022-09-22T19:11:30.787Z,100631.97
2022-09-22T19:14:02.986Z,100632.38
2022-09-22T19:16:34.791Z,100640.91
2022-09-22T19:19:05.523Z,100634.03
2022-09-22T19:21:39.389Z,100638.13
2022-09-22T19:24:11.471Z,100636.09
2022-09-22T19:26:44.500Z,100638.94
2022-09-22T19:29:15.904Z,100630.81
2022-09-22T19:31:47.598Z,100640.97
2022-09-22T19:34:19.420Z,100639.34
2022-09-22T19:36:50.500Z,100639.34
2022-09-22T19:39:21.420Z,100642.19
2022-09-22T19:41:56.732Z,100640.19
2022-09-22T19:44:30.203Z,100648.72
2022-09-22T19:47:01.819Z,100648.72
2022-09-22T19:49:32.721Z,100649.97
2022-09-22T19:52:03.626Z,100653.59
2022-09-22T19:54:34.444Z,100645.47
2022-09-22T19:57:07.968Z,100648.34
2022-09-22T19:59:40.339Z,100647.94
2022-09-22T20:02:16.388Z,100640.19
2022-09-22T20:04:47.460Z,100653.66
2022-09-22T20:07:18.630Z,100643.03
2022-09-22T20:09:49.639Z,100646.31
2022-09-22T20:12:22.434Z,100645.88
2022-09-22T20:14:55.824Z,100637.78
2022-09-22T20:17:26.591Z,100643.47
2022-09-22T20:19:57.411Z,100644.72
2022-09-22T20:22:30.228Z,100649.19
2022-09-22T20:25:03.011Z,100646.75
2022-09-22T20:27:36.686Z,100639.00
2022-09-22T20:30:09.316Z,100632.91
2022-09-22T20:32:41.092Z,100642.28
2022-09-22T20:35:23.524Z,100641.47
2022-09-22T20:37:59.135Z,100649.22
2022-09-22T20:40:29.679Z,100641.91
2022-09-22T20:43:04.055Z,100638.25
2022-09-22T20:45:35.400Z,100639.06
2022-09-22T20:48:05.835Z,100640.72
2022-09-22T20:50:36.705Z,100639.50
2022-09-22T20:53:07.731Z,100632.56
2022-09-22T20:55:39.282Z,100631.78
2022-09-22T20:58:16.115Z,100637.47
2022-09-22T21:00:51.886Z,100643.19
2022-09-22T21:03:22.738Z,100644.41
2022-09-22T21:05:53.266Z,100637.09
2022-09-22T21:08:40.630Z,100641.16
2022-09-22T21:11:15.921Z,100640.81
2022-09-22T21:13:48.768Z,100637.97
2022-09-22T21:16:19.503Z,100640.81
2022-09-22T21:18:52.075Z,100637.97
2022-09-22T21:21:24.147Z,100633.50
2022-09-22T21:23:54.893Z,100628.59
2022-09-22T21:26:25.526Z,100632.66
2022-09-22T21:28:58.520Z,100637.56
2022-09-22T21:31:29.933Z,100640.41
2022-09-22T21:34:00.944Z,100634.72
2022-09-22T21:36:31.849Z,100633.88
2022-09-22T21:39:03.185Z,100640.41
2022-09-22T21:41:36.571Z,100636.34
2022-09-22T21:44:09.621Z,100635.94
2022-09-22T21:46:41.974Z,100629.44
2022-09-22T21:49:13.696Z,100623.72
2022-09-22T21:51:47.900Z,100624.13
2022-09-22T21:54:21.087Z,100626.19
2022-09-22T21:56:52.786Z,100624.56
2022-09-22T21:59:25.602Z,100615.19
2022-09-22T22:01:56.413Z,100624.97
2022-09-22T22:04:27.232Z,100616.06
2022-09-22T22:06:57.909Z,100620.97
2022-09-22T22:09:28.408Z,100621.81
2022-09-22T22:12:01.059Z,100627.94
2022-09-22T22:14:35.389Z,100624.31
2022-09-22T22:17:07.289Z,100618.66
2022-09-22T22:19:37.264Z,100617.47
2022-09-22T22:22:08.861Z,100619.94
2022-09-22T22:24:41.613Z,100617.91
2022-09-22T22:27:15.380Z,100618.81
2022-09-22T22:29:48.309Z,100613.56
2022-09-22T22:32:19.743Z,100615.22
2022-09-22T22:34:50.473Z,100614.81
2022-09-22T22:37:21.985Z,100615.25
2022-09-22T22:39:52.986Z,100616.88
2022-09-22T22:42:23.182Z,100611.63
2022-09-22T22:44:55.228Z,100606.34
2022-09-22T22:47:26.077Z,100604.72
2022-09-22T22:49:57.165Z,100608.34
2022-09-22T22:52:27.937Z,100608.00
2022-09-22T22:54:58.713Z,100610.41
2022-09-22T22:57:30.378Z,100608.78
2022-09-22T23:00:03.530Z,100607.16
2022-09-22T23:02:34.499Z,100609.63
2022-09-22T23:05:05.587Z,100600.69
2022-09-22T23:07:36.618Z,100598.28
2022-09-22T23:10:11.534Z,100603.97
2022-09-22T23:12:42.414Z,100604.78
2022-09-22T23:15:16.729Z,100591.34
2022-09-22T23:17:51.715Z,100585.66
2022-09-22T23:20:22.953Z,100588.50
2022-09-22T23:22:54.846Z,100585.66
2022-09-22T23:25:25.754Z,100581.19
2022-09-22T23:27:56.496Z,100575.09
2022-09-22T23:30:29.407Z,100572.25
2022-09-22T23:33:00.292Z,100570.66
2022-09-22T23:35:31.088Z,100572.69
2022-09-22T23:38:02.150Z,100573.91
2022-09-22T23:40:35.164Z,100563.75
2022-09-22T23:43:05.949Z,100549.56
2022-09-22T23:45:38.606Z,100545.53
2022-09-22T23:48:09.322Z,100542.31
2022-09-22T23:50:40.373Z,100547.19
2022-09-22T23:53:11.203Z,100534.25
2022-09-22T23:55:42.251Z,100542.03
2022-09-22T23:58:23.356Z,100535.53
